createdAt,value
2016-07-08T00:00:55.694Z,85.28
2016-07-08T00:01:55.714Z,85.28
2016-07-08T00:02:55.705Z,85.47
2016-07-08T00:03:55.684Z,85.66
2016-07-08T00:04:55.688Z,86.52
2016-07-08T00:05:55.713Z,86.52
2016-07-08T00:06:55.683Z,86.72
2016-07-08T00:07:55.680Z,86.33
2016-07-08T00:08:55.724Z,87.19
2016-07-08T00:09:55.731Z,87.68
2016-07-08T00:10:55.694Z,87.35
2016-07-08T00:11:55.716Z,88.21
2016-07-08T00:12:55.737Z,88.11
2016-07-08T00:13:55.687Z,88.21
2016-07-08T00:14:55.736Z,88.73
2016-07-08T00:15:55.704Z,88.35
2016-07-08T00:16:55.705Z,88.16
2016-07-08T00:17:55.698Z,87.49
2016-07-08T00:18:55.689Z,87.68
2016-07-08T00:19:55.729Z,87.01
2016-07-08T00:20:55.702Z,87.49
2016-07-08T00:21:55.689Z,86.91
2016-07-08T00:22:55.703Z,87.01
2016-07-08T00:23:55.696Z,87.1
2016-07-08T00:24:55.717Z,86.72
2016-07-08T00:25:55.723Z,86.52
2016-07-08T00:26:55.712Z,85.57
2016-07-08T00:27:55.704Z,85.75
2016-07-08T00:28:55.730Z,85.85
2016-07-08T00:29:55.735Z,85.75
2016-07-08T00:30:55.724Z,85.66
2016-07-08T00:31:55.711Z,86.52
2016-07-08T00:32:55.717Z,86.33
2016-07-08T00:33:55.737Z,86.24
2016-07-08T00:34:55.707Z,86.62
2016-07-08T00:35:55.714Z,86.81
2016-07-08T00:36:55.720Z,87.77
2016-07-08T00:37:55.734Z,87.19
2016-07-08T00:38:55.718Z,88.06
2016-07-08T00:39:55.740Z,87.82
2016-07-08T00:40:55.734Z,88.21
2016-07-08T00:41:55.709Z,88.45
2016-07-08T00:42:55.733Z,88.16
2016-07-08T00:43:55.724Z,87.49
2016-07-08T00:44:55.731Z,87.29
2016-07-08T00:45:55.737Z,87.01
2016-07-08T00:46:55.724Z,86.52
2016-07-08T00:47:55.739Z,85.66
2016-07-08T00:48:55.744Z,85.66
2016-07-08T00:49:55.702Z,85.18
2016-07-08T00:50:55.729Z,85.75
2016-07-08T00:51:55.725Z,85.51
2016-07-08T00:52:55.702Z,84.99
2016-07-08T00:53:55.734Z,84.99
2016-07-08T00:54:55.779Z,85.28
2016-07-08T00:55:55.740Z,85.37
2016-07-08T00:56:55.721Z,84.8
2016-07-08T00:57:55.729Z,84.89
2016-07-08T00:58:58.918Z,85.28
2016-07-08T00:59:55.744Z,85.28
2016-07-08T01:00:55.725Z,85.66
2016-07-08T01:01:55.731Z,85.37
2016-07-08T01:02:55.726Z,85.66
2016-07-08T01:03:55.742Z,85.75
2016-07-08T01:04:55.737Z,85.08
2016-07-08T01:05:55.721Z,84.55
2016-07-08T01:06:55.748Z,84.31
2016-07-08T01:07:55.825Z,83.78
2016-07-08T01:08:55.975Z,84.12
2016-07-08T01:09:55.804Z,84.6
2016-07-08T01:10:55.759Z,84.41
2016-07-08T01:11:55.753Z,84.51
2016-07-08T01:12:55.697Z,84.41
2016-07-08T01:13:55.721Z,84.41
2016-07-08T01:14:55.754Z,84.8
2016-07-08T01:15:55.753Z,84.6
2016-07-08T01:16:55.756Z,84.41
2016-07-08T01:17:55.725Z,84.41
2016-07-08T01:18:55.753Z,84.51
2016-07-08T01:19:55.761Z,84.7
2016-07-08T01:20:55.743Z,84.89
2016-07-08T01:21:55.707Z,84.99
2016-07-08T01:22:55.739Z,84.99
2016-07-08T01:23:55.750Z,85.47
2016-07-08T01:24:55.729Z,85.47
2016-07-08T01:25:55.752Z,85.37
2016-07-08T01:26:55.721Z,85.28
2016-07-08T01:27:55.752Z,85.66
2016-07-08T01:28:55.746Z,85.95
2016-07-08T01:29:55.752Z,85.75
2016-07-08T01:30:55.758Z,86.33
2016-07-08T01:31:55.759Z,86.52
2016-07-08T01:32:55.732Z,86.48
2016-07-08T01:33:55.763Z,85.75
2016-07-08T01:34:55.760Z,85.95
2016-07-08T01:35:55.775Z,85.95
2016-07-08T01:36:55.765Z,86.14
2016-07-08T01:37:55.758Z,85.85
2016-07-08T01:38:55.760Z,85.75
2016-07-08T01:39:55.740Z,86.62
2016-07-08T01:40:55.730Z,86.05
2016-07-08T01:41:55.716Z,86.33
2016-07-08T01:42:55.762Z,86.43
2016-07-08T01:43:55.729Z,86.33
2016-07-08T01:44:55.760Z,86.72
2016-07-08T01:45:55.732Z,86.81
2016-07-08T01:46:55.759Z,87.77
2016-07-08T01:47:55.749Z,87.96
2016-07-08T01:48:55.760Z,87.39
2016-07-08T01:49:55.768Z,87.82
2016-07-08T01:50:55.755Z,88.25
2016-07-08T01:51:55.776Z,88.06
2016-07-08T01:52:55.744Z,88.25
2016-07-08T01:53:55.775Z,88.35
2016-07-08T01:54:55.752Z,88.25
2016-07-08T01:55:55.765Z,88.25
2016-07-08T01:56:55.782Z,88.25
2016-07-08T01:57:55.773Z,88.11
2016-07-08T01:58:55.746Z,88.45
2016-07-08T01:59:55.776Z,88.49
2016-07-08T02:00:55.781Z,88.49
2016-07-08T02:01:55.760Z,89.55
2016-07-08T02:02:55.765Z,88.49
2016-07-08T02:03:55.755Z,88.31
2016-07-08T02:04:55.777Z,88.02
2016-07-08T02:05:55.763Z,88.4
2016-07-08T02:06:55.776Z,89.36
2016-07-08T02:07:55.758Z,89.4
2016-07-08T02:08:55.748Z,89.07
2016-07-08T02:09:55.771Z,88.59
2016-07-08T02:10:55.748Z,88.06
2016-07-08T02:11:55.771Z,88.45
2016-07-08T02:12:55.756Z,88.54
2016-07-08T02:13:55.785Z,88.93
2016-07-08T02:14:55.768Z,88.64
2016-07-08T02:15:55.785Z,89.07
2016-07-08T02:16:55.781Z,89.26
2016-07-08T02:17:55.777Z,88.49
2016-07-08T02:18:55.746Z,88.35
2016-07-08T02:19:55.780Z,89.12
2016-07-08T02:20:55.765Z,89.6
2016-07-08T02:21:55.768Z,89.65
2016-07-08T02:22:55.787Z,90.13
2016-07-08T02:23:55.780Z,90.13
2016-07-08T02:24:55.745Z,90.32
2016-07-08T02:25:55.762Z,89.94
2016-07-08T02:26:55.785Z,90.7
2016-07-08T02:27:55.763Z,90.7
2016-07-08T02:28:55.787Z,90.8
2016-07-08T02:29:55.851Z,90.03
2016-07-08T02:30:55.770Z,89.84
2016-07-08T02:31:55.752Z,90.13
2016-07-08T02:32:55.761Z,90.42
2016-07-08T02:33:55.781Z,89.94
2016-07-08T02:34:55.783Z,89.84
2016-07-08T02:35:55.742Z,90.52
2016-07-08T02:36:55.748Z,90.22
2016-07-08T02:37:55.790Z,90.13
2016-07-08T02:38:55.787Z,90.13
2016-07-08T02:39:55.773Z,90.32
2016-07-08T02:40:55.786Z,90.32
2016-07-08T02:41:55.788Z,90.13
2016-07-08T02:42:55.782Z,90.22
2016-07-08T02:43:55.812Z,89.46
2016-07-08T02:44:55.780Z,90.27
2016-07-08T02:45:55.802Z,90.13
2016-07-08T02:46:55.768Z,90.32
2016-07-08T02:47:55.787Z,89.75
2016-07-08T02:48:55.799Z,90.22
2016-07-08T02:49:55.789Z,90.03
2016-07-08T02:50:55.777Z,90.42
2016-07-08T02:51:55.781Z,90.22
2016-07-08T02:52:55.800Z,90.42
2016-07-08T02:53:55.834Z,90.99
2016-07-08T02:54:55.797Z,90.8
2016-07-08T02:55:55.791Z,91.66
2016-07-08T02:56:55.777Z,91.47
2016-07-08T02:57:55.806Z,91.19
2016-07-08T02:58:55.837Z,91.38
2016-07-08T02:59:55.788Z,91.38
2016-07-08T03:00:55.768Z,91.38
2016-07-08T03:01:55.799Z,91.19
2016-07-08T03:02:55.759Z,90.99
2016-07-08T03:03:55.801Z,90.61
2016-07-08T03:04:55.806Z,90.61
2016-07-08T03:05:55.771Z,90.9
2016-07-08T03:06:55.799Z,91.38
2016-07-08T03:07:55.791Z,92.14
2016-07-08T03:08:55.810Z,92.24
2016-07-08T03:09:55.780Z,92.14
2016-07-08T03:10:55.777Z,92.05
2016-07-08T03:11:55.814Z,92.33
2016-07-08T03:12:55.804Z,91.86
2016-07-08T03:13:55.809Z,92.05
2016-07-08T03:14:55.814Z,92.19
2016-07-08T03:15:55.787Z,92
2016-07-08T03:16:55.793Z,92.58
2016-07-08T03:17:55.797Z,92.48
2016-07-08T03:18:55.790Z,92.39
2016-07-08T03:19:55.826Z,92.1
2016-07-08T03:20:55.801Z,92.68
2016-07-08T03:21:55.806Z,93.54
2016-07-08T03:22:55.808Z,93.73
2016-07-08T03:23:55.812Z,92.77
2016-07-08T03:24:55.794Z,92.39
2016-07-08T03:25:55.786Z,92.29
2016-07-08T03:26:55.790Z,92.58
2016-07-08T03:27:55.787Z,92.96
2016-07-08T03:28:55.819Z,92.58
2016-07-08T03:29:55.820Z,92.24
2016-07-08T03:30:55.793Z,92.68
2016-07-08T03:31:55.821Z,92.48
2016-07-08T03:32:55.832Z,92.48
2016-07-08T03:33:55.837Z,92
2016-07-08T03:34:55.767Z,92.58
2016-07-08T03:35:55.791Z,92.72
2016-07-08T03:36:55.777Z,92.43
2016-07-08T03:37:55.800Z,92.68
2016-07-08T03:38:55.814Z,93.63
2016-07-08T03:39:55.802Z,93.63
2016-07-08T03:40:55.801Z,93.44
2016-07-08T03:41:55.813Z,93.73
2016-07-08T03:42:55.797Z,93.73
2016-07-08T03:43:55.792Z,94.12
2016-07-08T03:44:55.832Z,93.63
2016-07-08T03:45:55.822Z,93.73
2016-07-08T03:46:55.800Z,93.25
2016-07-08T03:47:55.819Z,92.58
2016-07-08T03:48:55.814Z,92.43
2016-07-08T03:49:55.849Z,92.82
2016-07-08T03:50:55.829Z,92.05
2016-07-08T03:51:55.823Z,92.58
2016-07-08T03:52:55.858Z,93.06
2016-07-08T03:53:55.848Z,93.06
2016-07-08T03:54:55.808Z,93.54
2016-07-08T03:55:55.797Z,93.06
2016-07-08T03:56:55.823Z,93.15
2016-07-08T03:57:55.817Z,92.82
2016-07-08T03:58:55.812Z,92.63
2016-07-08T03:59:55.832Z,92.53
2016-07-08T04:00:55.812Z,92.53
2016-07-08T04:01:55.817Z,92.53
2016-07-08T04:02:55.826Z,92.24
2016-07-08T04:03:55.817Z,92.63
2016-07-08T04:04:55.840Z,92.72
2016-07-08T04:05:55.845Z,93.01
2016-07-08T04:06:55.792Z,92.72
2016-07-08T04:07:55.826Z,92.63
2016-07-08T04:08:55.806Z,93.2
2016-07-08T04:09:55.816Z,93.49
2016-07-08T04:10:55.821Z,93.25
2016-07-08T04:11:55.816Z,93.87
2016-07-08T04:12:55.824Z,93.54
2016-07-08T04:13:55.812Z,93.82
2016-07-08T04:14:55.825Z,93.68
2016-07-08T04:15:55.828Z,93.77
2016-07-08T04:16:55.820Z,93.68
2016-07-08T04:17:55.844Z,93.49
2016-07-08T04:18:55.825Z,93.15
2016-07-08T04:19:55.836Z,92.72
2016-07-08T04:20:55.814Z,92.91
2016-07-08T04:21:55.854Z,93.39
2016-07-08T04:22:55.825Z,93.1
2016-07-08T04:23:55.825Z,93.54
2016-07-08T04:24:55.852Z,93.82
2016-07-08T04:25:55.853Z,93.82
2016-07-08T04:26:55.851Z,93.82
2016-07-08T04:27:55.857Z,94.4
2016-07-08T04:28:55.816Z,94.4
2016-07-08T04:29:55.835Z,94.12
2016-07-08T04:30:55.831Z,93.92
2016-07-08T04:31:55.817Z,93.25
2016-07-08T04:32:55.810Z,93.2
2016-07-08T04:33:55.844Z,93.01
2016-07-08T04:34:55.815Z,92.24
2016-07-08T04:35:55.839Z,91.13
2016-07-08T04:36:55.862Z,89.22
2016-07-08T04:37:55.838Z,87.09
2016-07-08T04:38:55.841Z,85.02
2016-07-08T04:39:55.818Z,84.25
2016-07-08T04:40:55.831Z,84.19
2016-07-08T04:41:55.845Z,84.25
2016-07-08T04:42:55.847Z,84.83
2016-07-08T04:43:55.822Z,85.11
2016-07-08T04:44:55.866Z,85.6
2016-07-08T04:45:55.856Z,84.83
2016-07-08T04:46:55.838Z,83.58
2016-07-08T04:47:55.829Z,81.45
2016-07-08T04:48:55.898Z,78.4
2016-07-08T04:49:55.822Z,76.65
2016-07-08T04:50:55.833Z,75.72
2016-07-08T05:03:56.200Z,74.66
2016-07-08T05:04:12.710Z,81.63
2016-07-08T05:05:12.620Z,82.5
2016-07-08T05:06:12.644Z,82.56
2016-07-08T05:07:12.624Z,81.88
2016-07-08T05:08:12.604Z,81.63
2016-07-08T05:09:12.649Z,81.06
2016-07-08T05:10:12.638Z,80.68
2016-07-08T05:11:12.617Z,80.1
2016-07-08T05:12:12.629Z,79.46
2016-07-08T05:13:12.637Z,78.5
2016-07-08T05:14:12.598Z,78.54
2016-07-08T05:15:12.624Z,78.15
2016-07-08T05:16:12.628Z,78.73
2016-07-08T05:17:12.645Z,79.21
2016-07-08T05:18:12.753Z,79.66
2016-07-08T05:19:12.641Z,81.39
2016-07-08T05:20:12.653Z,81.54
2016-07-08T05:21:12.635Z,81.93
2016-07-08T05:22:12.629Z,82.5
2016-07-08T05:23:12.652Z,83.23
2016-07-08T05:24:12.669Z,83.72
2016-07-08T05:25:12.640Z,84.1
2016-07-08T05:26:12.657Z,84.48
2016-07-08T05:27:12.640Z,83.72
2016-07-08T05:28:12.674Z,85.11
2016-07-08T05:29:12.649Z,85.11
2016-07-08T05:30:12.674Z,82.71
2016-07-08T05:31:12.628Z,83.04
2016-07-08T05:32:12.639Z,82.46
2016-07-08T05:33:12.684Z,82.17
2016-07-08T05:34:12.658Z,82.12
2016-07-08T05:35:12.646Z,82.21
2016-07-08T05:36:12.656Z,82.41
2016-07-08T05:37:12.675Z,83.08
2016-07-08T05:38:12.652Z,84.19
2016-07-08T05:39:12.634Z,82.85
2016-07-08T05:40:12.667Z,82.94
2016-07-08T05:41:12.652Z,83.91
2016-07-08T05:42:12.636Z,83.48
2016-07-08T05:43:12.647Z,83.72
2016-07-08T05:44:12.670Z,83.72
2016-07-08T05:45:12.649Z,84.63
2016-07-08T05:46:12.623Z,83.91
2016-07-08T05:47:12.678Z,83.42
2016-07-08T05:48:12.685Z,83.23
2016-07-08T05:49:12.675Z,83.23
2016-07-08T05:50:12.652Z,82.65
2016-07-08T05:51:12.641Z,82.85
2016-07-08T05:52:12.669Z,83.42
2016-07-08T05:53:12.627Z,83.72
2016-07-08T05:54:12.632Z,83.33
2016-07-08T05:55:12.679Z,83.81
2016-07-08T05:56:12.649Z,83.52
2016-07-08T05:57:12.667Z,83.91
2016-07-08T05:58:13.998Z,84
2016-07-08T05:59:12.657Z,83.23
2016-07-08T06:00:12.661Z,83.81
2016-07-08T06:01:12.681Z,84.19
2016-07-08T06:02:12.659Z,83.96
2016-07-08T06:03:12.687Z,84.06
2016-07-08T06:04:12.758Z,84.73
2016-07-08T06:05:12.677Z,84.83
2016-07-08T06:06:12.650Z,84.63
2016-07-08T06:07:12.728Z,84.54
2016-07-08T06:08:12.683Z,84.54
2016-07-08T06:09:12.643Z,84.44
2016-07-08T06:10:12.688Z,84.25
2016-07-08T06:11:12.673Z,84.63
2016-07-08T06:12:12.702Z,84.63
2016-07-08T06:13:12.653Z,84.63
2016-07-08T06:14:12.635Z,84.87
2016-07-08T06:15:12.668Z,84.39
2016-07-08T06:16:12.692Z,84
2016-07-08T06:17:12.702Z,84.39
2016-07-08T06:18:12.691Z,84.67
2016-07-08T06:19:12.676Z,84
2016-07-08T06:20:12.676Z,84.48
2016-07-08T06:21:12.643Z,84.77
2016-07-08T06:22:12.673Z,84.1
2016-07-08T06:23:12.648Z,83.72
2016-07-08T06:24:12.688Z,83.62
2016-07-08T06:25:12.700Z,83.72
2016-07-08T06:26:12.684Z,83.14
2016-07-08T06:27:12.694Z,83.37
2016-07-08T06:28:12.710Z,82.79
2016-07-08T06:29:12.698Z,82.7
2016-07-08T06:30:12.659Z,82.21
2016-07-08T06:31:12.708Z,83.08
2016-07-08T06:32:12.805Z,82.7
2016-07-08T06:33:12.829Z,82.6
2016-07-08T06:34:12.726Z,82.41
2016-07-08T06:35:12.685Z,81.58
2016-07-08T06:36:12.774Z,80.66
2016-07-08T06:37:12.678Z,80.08
2016-07-08T06:38:12.685Z,79.11
2016-07-08T06:39:12.680Z,78.67
2016-07-08T06:40:12.681Z,78.42
2016-07-08T06:41:12.687Z,77.26
2016-07-08T06:42:12.909Z,77.65
2016-07-08T06:43:12.719Z,77.42
2016-07-08T06:44:12.700Z,78.77
2016-07-08T06:45:12.823Z,79.74
2016-07-08T06:46:12.704Z,79.74
2016-07-08T06:47:12.865Z,79.41
2016-07-08T06:48:12.702Z,80.37
2016-07-08T06:49:12.692Z,80.37
2016-07-08T06:50:12.688Z,80.27
2016-07-08T06:51:13.145Z,80.76
2016-07-08T06:52:12.704Z,80.18
2016-07-08T06:53:12.708Z,80.46
2016-07-08T06:54:12.691Z,79.98
2016-07-08T06:55:12.732Z,80.18
2016-07-08T06:56:13.470Z,80.56
2016-07-08T06:57:12.713Z,80.18
2016-07-08T06:58:12.723Z,80.56
2016-07-08T06:59:12.724Z,80.56
2016-07-08T07:00:12.735Z,80.18
2016-07-08T07:01:12.703Z,80.08
2016-07-08T07:02:12.724Z,80.27
2016-07-08T07:03:12.717Z,80.18
2016-07-08T07:04:12.710Z,80.69
2016-07-08T07:05:14.182Z,79.44
2016-07-08T07:06:12.740Z,79.54
2016-07-08T07:07:12.733Z,80.02
2016-07-08T07:08:12.760Z,79
2016-07-08T07:09:12.684Z,78.91
2016-07-08T07:10:12.723Z,78.71
2016-07-08T07:11:12.754Z,79.58
2016-07-08T07:12:12.699Z,79.74
2016-07-08T07:13:12.725Z,79.74
2016-07-08T07:14:12.715Z,80.22
2016-07-08T07:15:12.722Z,80.41
2016-07-08T07:16:12.739Z,80.69
2016-07-08T07:17:12.736Z,80.18
2016-07-08T07:18:12.695Z,80.76
2016-07-08T07:19:12.717Z,80.79
2016-07-08T07:20:12.734Z,80.76
2016-07-08T07:21:12.736Z,81.14
2016-07-08T07:22:12.917Z,80.85
2016-07-08T07:23:12.792Z,81.57
2016-07-08T07:24:13.208Z,82.62
2016-07-08T07:25:12.802Z,82.29
2016-07-08T07:26:13.364Z,81.85
2016-07-08T07:27:12.907Z,82.39
2016-07-08T07:28:12.736Z,81.81
2016-07-08T07:29:12.740Z,82.05
2016-07-08T07:30:13.122Z,82.01
2016-07-08T07:31:13.254Z,81.66
2016-07-08T07:32:14.364Z,82.2
2016-07-08T07:33:12.963Z,81.91
2016-07-08T07:34:17.049Z,82.34
2016-07-08T07:35:13.870Z,82.49
2016-07-08T07:36:13.131Z,82.34
2016-07-08T07:37:12.930Z,82.82
2016-07-08T07:38:12.784Z,82.82
2016-07-08T07:39:13.050Z,82.87
2016-07-08T07:40:13.068Z,82.43
2016-07-08T07:41:12.773Z,82.62
2016-07-08T07:42:12.876Z,82.59
2016-07-08T07:43:12.798Z,82.78
2016-07-08T07:44:13.303Z,83.01
2016-07-08T07:45:12.742Z,82.78
2016-07-08T07:46:13.018Z,82.92
2016-07-08T07:47:13.334Z,82.62
2016-07-08T07:48:12.781Z,83.01
2016-07-08T07:49:12.716Z,82.43
2016-07-08T07:50:12.738Z,82.92
2016-07-08T07:51:12.913Z,82.62
2016-07-08T07:52:12.776Z,82.53
2016-07-08T07:53:12.732Z,83.01
2016-07-08T07:54:12.761Z,82.82
2016-07-08T07:55:12.912Z,83.01
2016-07-08T07:56:12.747Z,82.57
2016-07-08T07:57:12.797Z,82.24
2016-07-08T07:58:12.765Z,82.09
2016-07-08T07:59:12.742Z,81.41
2016-07-08T08:00:13.725Z,81.9
2016-07-08T08:01:12.721Z,81.6
2016-07-08T08:02:12.783Z,81.7
2016-07-08T08:03:12.792Z,81.41
2016-07-08T08:04:12.776Z,81.99
2016-07-08T08:05:12.738Z,80.87
2016-07-08T08:06:13.434Z,80.97
2016-07-08T08:07:12.753Z,81.16
2016-07-08T08:08:12.739Z,81.07
2016-07-08T08:09:12.738Z,80.78
2016-07-08T08:10:12.748Z,80.39
2016-07-08T08:11:12.776Z,79.85
2016-07-08T08:12:12.740Z,78.99
2016-07-08T08:13:12.759Z,78.34
2016-07-08T08:14:12.736Z,78.34
2016-07-08T08:15:12.752Z,78.34
2016-07-08T08:16:12.933Z,78.92
2016-07-08T08:17:12.829Z,78.69
2016-07-08T08:18:12.735Z,78.69
2016-07-08T08:19:12.847Z,78.5
2016-07-08T08:20:12.849Z,78.83
2016-07-08T08:21:12.825Z,78.59
2016-07-08T08:22:12.820Z,78.06
2016-07-08T08:23:12.806Z,77.38
2016-07-08T08:24:12.763Z,76.7
2016-07-08T08:25:12.752Z,75.97
2016-07-08T08:26:12.753Z,75.13
2016-07-08T08:27:12.836Z,74.94
2016-07-08T08:28:12.731Z,74.46
2016-07-08T08:37:30.103Z,77.2
2016-07-08T08:38:30.112Z,76.8
2016-07-08T08:39:30.097Z,76.8
2016-07-08T08:40:30.132Z,76.42
2016-07-08T08:41:30.061Z,77.19
2016-07-08T08:42:30.131Z,77.76
2016-07-08T08:43:30.220Z,76.8
2016-07-08T08:44:30.158Z,76.8
2016-07-08T08:45:30.099Z,77.51
2016-07-08T08:46:30.090Z,76.8
2016-07-08T08:47:30.107Z,76.7
2016-07-08T08:48:30.108Z,77.57
2016-07-08T08:49:30.081Z,77.05
2016-07-08T08:50:30.115Z,76.8
2016-07-08T08:51:30.078Z,76.9
2016-07-08T08:52:30.117Z,76.9
2016-07-08T08:53:30.096Z,76.7
2016-07-08T08:54:30.069Z,76.61
2016-07-08T08:55:30.205Z,76.51
2016-07-08T08:56:30.072Z,76.12
2016-07-08T08:57:30.071Z,75.74
2016-07-08T08:58:34.807Z,76.12
2016-07-08T08:59:30.374Z,76.42
2016-07-08T09:00:30.461Z,77.38
2016-07-08T09:01:30.086Z,76.8
2016-07-08T09:02:30.094Z,77.83
2016-07-08T09:03:30.117Z,78.5
2016-07-08T09:04:30.693Z,78.75
2016-07-08T09:05:30.105Z,79.14
2016-07-08T09:06:30.103Z,79.72
2016-07-08T09:07:30.225Z,80.3
2016-07-08T09:08:30.150Z,80.16
2016-07-08T09:09:30.199Z,81.26
2016-07-08T09:10:30.234Z,81.22
2016-07-08T09:11:30.115Z,81.07
2016-07-08T09:12:30.167Z,81.22
2016-07-08T09:13:30.078Z,80.58
2016-07-08T09:14:30.936Z,79.72
2016-07-08T09:15:30.220Z,80
2016-07-08T09:16:30.151Z,79.91
2016-07-08T09:17:30.131Z,79.27
2016-07-08T09:18:30.143Z,79.47
2016-07-08T09:19:30.110Z,79.08
2016-07-08T09:20:30.189Z,78.79
2016-07-08T09:21:30.152Z,78.44
2016-07-08T09:22:30.102Z,78.59
2016-07-08T09:23:30.145Z,78.79
2016-07-08T09:24:30.145Z,78.73
2016-07-08T09:25:30.204Z,78.5
2016-07-08T09:26:30.141Z,78.11
2016-07-08T09:27:30.684Z,78.11
2016-07-08T09:28:30.184Z,78.02
2016-07-08T09:29:30.202Z,78.02
2016-07-08T09:30:30.118Z,77.73
2016-07-08T09:31:30.118Z,77.86
2016-07-08T09:32:30.217Z,78.59
2016-07-08T09:33:30.107Z,78.79
2016-07-08T09:34:30.079Z,78.34
2016-07-08T09:35:30.158Z,77.86
2016-07-08T09:36:30.134Z,78.21
2016-07-08T09:37:31.758Z,78.02
2016-07-08T09:38:30.113Z,78.25
2016-07-08T09:39:30.163Z,77.96
2016-07-08T09:40:30.336Z,77.86
2016-07-08T09:41:30.191Z,76.8
2016-07-08T09:42:30.117Z,76.7
2016-07-08T09:43:30.194Z,76.74
2016-07-08T09:44:31.108Z,76.74
2016-07-08T09:45:30.472Z,75.97
2016-07-08T09:46:30.436Z,74.55
2016-07-08T09:47:30.267Z,74.07
2016-07-08T09:48:30.225Z,73.97
2016-07-08T09:49:30.158Z,74.46
2016-07-08T09:50:30.120Z,74.07
2016-07-08T09:51:30.114Z,74.27
2016-07-08T09:52:30.133Z,75.43
2016-07-08T09:53:30.122Z,75.81
2016-07-08T09:54:30.167Z,75.58
2016-07-08T09:55:31.125Z,76.01
2016-07-08T09:56:30.131Z,75.2
2016-07-08T09:57:30.140Z,75.23
2016-07-08T09:58:30.182Z,74.71
2016-07-08T09:59:30.129Z,74.81
2016-07-08T10:00:30.248Z,75.1
2016-07-08T10:01:30.378Z,74.75
2016-07-08T10:02:30.141Z,74.17
2016-07-08T10:03:31.129Z,73.1
2016-07-08T10:04:30.256Z,73.07
2016-07-08T10:05:30.139Z,73.16
2016-07-08T10:06:30.129Z,73.07
2016-07-08T10:07:30.112Z,73.07
2016-07-08T10:08:32.905Z,73.16
2016-07-08T10:09:31.401Z,72.49
2016-07-08T10:10:30.400Z,73.46
2016-07-08T10:11:30.158Z,72.88
2016-07-08T10:12:30.128Z,72.49
2016-07-08T10:13:30.327Z,73.07
2016-07-08T10:14:31.123Z,73.26
2016-07-08T10:15:30.163Z,73.26
2016-07-08T10:16:30.178Z,73.26
2016-07-08T10:17:30.256Z,73.26
2016-07-08T10:18:30.901Z,73.13
2016-07-08T10:19:34.420Z,73.13
2016-07-08T10:20:30.131Z,73.22
2016-07-08T10:21:36.005Z,73.71
2016-07-08T10:22:30.131Z,73.9
2016-07-08T10:23:30.389Z,73.86
2016-07-08T10:24:35.443Z,73.9
2016-07-08T10:25:30.151Z,74.64
2016-07-08T10:26:30.122Z,74.68
2016-07-08T10:27:30.426Z,75.31
2016-07-08T10:28:30.365Z,75.31
2016-07-08T10:29:30.235Z,75.7
2016-07-08T10:30:30.194Z,75.6
2016-07-08T10:31:30.190Z,75.02
2016-07-08T10:32:30.190Z,75.45
2016-07-08T10:33:31.983Z,75.6
2016-07-08T10:34:30.433Z,75.16
2016-07-08T10:35:30.419Z,74.77
2016-07-08T10:36:30.225Z,75.35
2016-07-08T10:37:30.256Z,74.58
2016-07-08T10:38:31.201Z,75.35
2016-07-08T10:39:30.197Z,75.58
2016-07-08T10:40:30.278Z,74.77
2016-07-08T10:41:30.349Z,74.32
2016-07-08T10:42:30.608Z,74.32
2016-07-08T10:43:41.151Z,74.9
2016-07-08T10:44:30.953Z,75.68
2016-07-08T10:45:30.425Z,76.06
2016-07-08T10:46:30.182Z,75.2
2016-07-08T10:47:30.275Z,75.78
2016-07-08T10:48:30.283Z,76.16
2016-07-08T10:49:30.318Z,76.64
2016-07-08T10:50:30.352Z,76.42
2016-07-08T10:51:30.171Z,77.22
2016-07-08T10:52:30.237Z,76.9
2016-07-08T10:53:30.184Z,76.35
2016-07-08T10:54:30.182Z,76.64
2016-07-08T10:55:30.173Z,76.93
2016-07-08T10:56:30.289Z,76.64
2016-07-08T10:57:30.178Z,76.84
2016-07-08T10:58:30.180Z,76.84
2016-07-08T10:59:30.190Z,77.32
2016-07-08T11:00:30.285Z,77.13
2016-07-08T11:01:32.570Z,76.93
2016-07-08T11:02:38.372Z,75.87
2016-07-08T11:03:30.242Z,76.22
2016-07-08T11:04:30.199Z,75.29
2016-07-08T11:05:30.186Z,75.68
2016-07-08T11:06:35.189Z,75.48
2016-07-08T11:07:37.772Z,75.58
2016-07-08T11:08:30.340Z,75.1
2016-07-08T11:09:32.483Z,74.81
2016-07-08T11:10:42.031Z,75.68
2016-07-08T11:11:30.255Z,75.78
2016-07-08T11:12:30.499Z,76.93
2016-07-08T11:13:30.500Z,76.84
2016-07-08T11:14:32.148Z,76.7
2016-07-08T11:15:30.762Z,77.57
2016-07-08T11:16:30.187Z,77.86
2016-07-08T11:17:30.243Z,78.44
2016-07-08T11:18:30.956Z,78.25
2016-07-08T11:20:43.088Z,78.15
2016-07-08T11:21:42.426Z,78.64
2016-07-08T11:34:57.252Z,72.36
2016-07-08T11:35:57.308Z,70.72
2016-07-08T11:36:57.208Z,70.52
2016-07-08T11:37:57.420Z,70.42
2016-07-08T11:38:57.209Z,69.07
2016-07-08T11:39:57.177Z,69.94
2016-07-08T11:40:57.192Z,68.78
2016-07-08T11:42:17.456Z,68.2
2016-07-08T11:42:59.559Z,67.33
2016-07-08T11:43:57.260Z,66.75
2016-07-08T11:45:04.765Z,67.52
2016-07-08T11:45:57.362Z,66.94
2016-07-08T11:46:58.238Z,65.69
2016-07-08T11:47:57.774Z,66.53
2016-07-08T11:48:57.191Z,66.36
2016-07-08T11:49:58.662Z,65.75
2016-07-08T11:50:57.257Z,65.75
2016-07-08T11:51:57.486Z,65.47
2016-07-08T11:52:57.764Z,65.3
2016-07-08T11:53:57.281Z,64.92
2016-07-08T11:54:57.220Z,65.59
2016-07-08T11:55:57.239Z,65.11
2016-07-08T11:56:59.529Z,65.78
2016-07-08T11:57:57.186Z,65.4
2016-07-08T11:58:57.321Z,65.5
2016-07-08T11:59:57.263Z,64.72
2016-07-08T12:01:02.227Z,65.43
2016-07-08T12:01:57.275Z,64.95
2016-07-08T12:02:57.473Z,65.17
2016-07-08T12:03:57.199Z,65.72
2016-07-08T12:04:57.565Z,65.92
2016-07-08T12:06:08.541Z,64.85
2016-07-08T12:07:04.918Z,64.56
2016-07-08T12:08:08.107Z,64.37
2016-07-08T12:08:57.314Z,64.27
2016-07-08T12:09:57.218Z,64.37
2016-07-08T12:10:57.391Z,64.56
2016-07-08T12:11:57.582Z,65.14
2016-07-08T12:13:00.100Z,65.34
2016-07-08T12:14:00.511Z,65.92
2016-07-08T12:14:57.191Z,65.14
2016-07-08T12:15:58.182Z,64.66
2016-07-08T12:16:57.219Z,63.89
2016-07-08T12:17:57.211Z,63.4
2016-07-08T12:18:57.224Z,62.56
2016-07-08T12:19:57.236Z,62.88
2016-07-08T12:20:57.322Z,62.24
2016-07-08T12:21:57.248Z,61.79
2016-07-08T12:22:57.208Z,62.17
2016-07-08T12:23:57.233Z,61.33
2016-07-08T12:25:02.571Z,60.75
2016-07-08T12:26:14.868Z,59.97
2016-07-08T12:27:30.168Z,55.06
2016-07-08T12:28:02.524Z,54.6
2016-07-08T12:29:04.662Z,53.17
2016-07-08T12:30:19.008Z,53.71
2016-07-08T12:31:02.541Z,53.47
2016-07-08T12:32:02.562Z,54.82
2016-07-08T12:33:06.823Z,56.25
2016-07-08T12:34:09.007Z,57
2016-07-08T12:35:18.695Z,56.41
2016-07-08T12:36:21.048Z,57.09
2016-07-08T12:37:18.551Z,56.51
2016-07-08T12:38:43.559Z,58.26
2016-07-08T12:39:34.046Z,58.52
2016-07-08T12:40:19.202Z,59.07
2016-07-08T12:41:23.137Z,58.98
2016-07-08T12:42:18.692Z,58.11
2016-07-08T12:43:18.579Z,57.71
2016-07-08T12:44:19.020Z,57.81
2016-07-08T12:45:19.334Z,57.91
2016-07-08T12:46:19.698Z,56.62
2016-07-08T12:47:18.822Z,56.62
2016-07-08T12:48:18.797Z,57.28
2016-07-08T12:49:33.016Z,57.37
2016-07-08T12:50:18.562Z,57.82
2016-07-08T12:51:18.932Z,58.6
2016-07-08T12:52:18.804Z,58.98
2016-07-08T12:53:38.731Z,58.6
2016-07-08T12:54:18.682Z,58.89
2016-07-08T12:55:31.174Z,58.31
2016-07-08T12:56:18.546Z,58.98
2016-07-08T12:57:18.883Z,58.53
2016-07-08T12:58:19.276Z,58.04
2016-07-08T12:59:22.606Z,58.34
2016-07-08T13:00:36.141Z,58.34
2016-07-08T13:01:59.505Z,58.34
2016-07-08T13:02:37.761Z,57.86
2016-07-08T13:03:36.406Z,57.56
2016-07-08T13:04:48.083Z,57.56
2016-07-08T13:05:43.608Z,58.04
2016-07-08T13:06:37.698Z,57.86
2016-07-08T13:07:36.141Z,57.82
2016-07-08T13:08:36.086Z,57.92
2016-07-08T13:09:36.083Z,58.12
2016-07-08T13:10:38.283Z,58.14
2016-07-08T13:11:36.079Z,58.72
2016-07-08T13:12:39.834Z,58.92
2016-07-08T13:13:36.295Z,58.82
2016-07-08T13:14:36.121Z,58.72
2016-07-08T13:16:36.531Z,57.15
2016-07-08T13:17:39.076Z,57.05
2016-07-08T13:18:36.093Z,57.54
2016-07-08T13:20:09.461Z,57.99
2016-07-08T13:20:59.281Z,57.79
2016-07-08T13:26:20.922Z,60.5
2016-07-08T13:26:37.931Z,60.67
2016-07-08T13:28:38.487Z,61.54
2016-07-08T13:31:09.758Z,61.02
2016-07-08T13:33:09.904Z,61.51
2016-07-08T13:34:09.903Z,60.64
2016-07-08T13:35:09.867Z,60.44
2016-07-08T13:36:10.289Z,60.25
2016-07-08T13:37:26.170Z,60.25
2016-07-08T13:38:13.305Z,59.83